Главная страница
METAR-TAF:

METAR-TAF

Аэропорты :

Ольборг, Дания

широта: 57-06N, долгота: 009-51E, высота над уровнем моря: 3 м

Текущие метеонаблюдения

Эта сводка был подготовлена 25 минут назад, в 19:20 UTC
Ветер 7 Узел от юго-восточный
Температура 9°C
Влажность 87%
Давление 1029 hPa
Видимость 10 км и более

METAR: EKYT 151920Z AUTO 14007KT 9999NDV BKN220/// 09/07 Q1029 TEMPO 6000

Время: 20:45 (19:45 UTC)

Прогноз

Эта сводка был подготовлена 2 часа и 45 минут назад, в 17:00 UTC
Прогноз действительный с 15-го 18 UTC до 16-го 18 UTC
Ветер 8 Узел от юго-юго-восточный
Видимость 10 км и более
Отдельные облака на высоте 7000 фута
временами
С 15-го 18 UTC до 16-го 04 UTC
Видимость: 4000 м
дымка
временами
С 16-го 04 UTC до 16-го 11 UTC
Видимость: 4000 м
Рассеянная облачность на высоте 700 фута
дымка
временами
С 16-го 16 UTC до 16-го 18 UTC
Видимость: 5000 м
дымка

TAF: EKYT 151700Z 1518/1618 16008KT 9999 SCT070 TEMPO 1518/1604 4000 BR TEMPO 1604/1611 4000 BR BKN007 TEMPO 1616/1618 5000 BR

Метеонаблюдения и прогнозы для более 4000 аэропортов (сводки METAR и TAF).

Имеющиеся станции представлены на карте желтыми и красными точками.

Чтобы увидеть название станции, наведите на нее мышь.

Затем щелкните, чтобы увидеть метеонаблюдения и метеопрогнозы.

Управление картой: чтобы увеличить масштаб, щелкните зеленые кнопки с черным крестиком; чтобы уменьшить масштаб, щелкните зеленую кнопку с тире; для просмотра соседних карт щелкайте зеленые стрелки.


METAR-TAF: